Startpagina
METAR-TAF:

METAR-TAF

Vliegvelden :

Luchthaven Prins Said Ibrahim

Moroni, Comoren

breedte: 11-32S, lengte: 043-16E, hoogte: 29 m

Actueel weer

Dit bericht is 59 minuten geleden gemaakt, om 16:00 UTC
Wind 7 kt uit het oosten, variërend tussen het noordoosten en het zuidoosten
Temperatuur 25°C
Vochtigheid 74%
Druk 1019 hPa
Zicht 10 km of meer
Weinig wolken op 2000 ft

METAR: FMCH 151600Z 09007KT 050V130 9999 FEW020 25/20 Q1019 NOSIG

Tijdstip: 19:59 (16:59 UTC)

Verwachting

Dit bericht is 5 uur en het 59 minuten geleden gemaakt, om 11:00 UTC
Verwachting geldig van 15 om 12 UTC tot 16 om 18 UTC
Wind 15 kt uit het oostzuidoosten
Zicht 10 km of meer
Weinig wolken op 2000 ft
Wijzigt naar
van 15 om 16 UTC tot 15 om 20 UTC
Wind 5 kt uit variabele richting
Wijzigt naar
van 16 om 06 UTC tot 16 om 08 UTC
Wind 12 kt uit het zuiden

TAF: FMCH 151100Z 1512/1618 12015KT 9999 FEW020 BECMG 1516/1520 VRB05KT BECMG 1606/1608 19012KT

Waarnemingen en weersverwachtingen van meer dan 4000 vliegvelden (METAR en TAF).

De beschikbare stations zijn de gele en rode punten op de kaart.

Ga met uw muis naar het station om de naam te zien.

Klik dan om waarnemingen en weersverwachtingen te zien.

kaart wijzigen: klik op de groene knoppen met een zwart kruis om in te zoomen, op de groene knop met een streepje om uit te zoomen of op de groene pijlen voor aangrenzende kaarten.


METAR-TAF: